createdAt,value
2022-08-31T00:00:19.618Z,28.70
2022-08-31T00:04:11.839Z,28.69
2022-08-31T00:07:50.080Z,28.71
2022-08-31T00:11:28.541Z,28.75
2022-08-31T00:15:07.639Z,28.79
2022-08-31T00:18:45.529Z,28.81
2022-08-31T00:22:22.890Z,28.84
2022-08-31T00:26:00.743Z,28.86
2022-08-31T00:29:38.034Z,28.88
2022-08-31T00:33:15.657Z,28.91
2022-08-31T00:36:53.473Z,28.93
2022-08-31T00:40:32.721Z,28.92
2022-08-31T00:44:15.407Z,28.90
2022-08-31T00:47:54.241Z,28.89
2022-08-31T00:51:39.518Z,28.88
2022-08-31T00:55:37.348Z,28.87
2022-08-31T00:59:17.215Z,28.84
2022-08-31T01:02:56.518Z,28.82
2022-08-31T01:06:34.391Z,28.81
2022-08-31T01:10:11.727Z,28.78
2022-08-31T01:13:51.163Z,28.73
2022-08-31T01:17:29.358Z,28.67
2022-08-31T01:21:15.657Z,28.62
2022-08-31T01:24:55.279Z,28.53
2022-08-31T01:28:33.520Z,28.41
2022-08-31T01:32:11.114Z,28.29
2022-08-31T01:35:48.326Z,28.16
2022-08-31T01:39:25.635Z,28.03
2022-08-31T01:43:02.986Z,27.92
2022-08-31T01:46:40.724Z,27.79
2022-08-31T01:50:19.781Z,27.68
2022-08-31T01:53:57.099Z,27.58
2022-08-31T01:57:35.226Z,27.50
2022-08-31T02:01:32.733Z,27.43
2022-08-31T02:05:11.457Z,27.36
2022-08-31T02:08:49.012Z,27.31
2022-08-31T02:12:26.013Z,27.26
2022-08-31T02:16:05.874Z,27.19
2022-08-31T02:19:42.966Z,27.12
2022-08-31T02:23:20.669Z,27.06
2022-08-31T02:26:57.813Z,27.00
2022-08-31T02:30:35.266Z,26.93
2022-08-31T02:34:12.756Z,26.86
2022-08-31T02:37:49.661Z,26.81
2022-08-31T02:41:30.149Z,26.76
2022-08-31T02:45:06.330Z,26.69
2022-08-31T02:48:43.906Z,26.64
2022-08-31T02:52:21.784Z,26.60
2022-08-31T02:55:59.516Z,26.58
2022-08-31T02:59:38.295Z,26.56
2022-08-31T03:03:16.262Z,26.52
2022-08-31T03:06:53.273Z,26.50
2022-08-31T03:10:31.659Z,26.50
2022-08-31T03:14:09.631Z,26.48
2022-08-31T03:17:47.333Z,26.47
2022-08-31T03:21:24.366Z,26.44
2022-08-31T03:25:02.027Z,26.43
2022-08-31T03:28:39.548Z,26.40
2022-08-31T03:32:17.932Z,26.39
2022-08-31T03:35:55.541Z,26.37
2022-08-31T03:39:32.989Z,26.36
2022-08-31T03:43:12.010Z,26.34
2022-08-31T03:46:53.022Z,26.31
2022-08-31T03:50:30.786Z,26.28
2022-08-31T03:54:08.000Z,26.22
2022-08-31T03:57:45.374Z,26.17
2022-08-31T04:01:23.829Z,26.10
2022-08-31T04:05:21.141Z,26.01
2022-08-31T04:08:38.795Z,25.92
2022-08-31T04:12:18.144Z,25.90
2022-08-31T04:16:00.604Z,25.83
2022-08-31T04:19:38.769Z,25.77
2022-08-31T04:23:15.641Z,25.76
2022-08-31T04:26:53.213Z,25.66
2022-08-31T04:30:30.549Z,25.67
2022-08-31T04:34:08.555Z,25.69
2022-08-31T04:37:47.077Z,25.72
2022-08-31T04:41:28.093Z,25.74
2022-08-31T04:45:06.206Z,25.73
2022-08-31T04:48:44.188Z,25.71
2022-08-31T04:52:28.055Z,25.72
2022-08-31T04:56:07.036Z,25.75
2022-08-31T04:59:44.802Z,25.77
2022-08-31T05:03:22.252Z,25.73
2022-08-31T05:07:00.428Z,25.76
2022-08-31T05:10:39.622Z,25.80
2022-08-31T05:14:18.003Z,25.83
2022-08-31T05:17:55.165Z,25.86
2022-08-31T05:21:35.785Z,25.87
2022-08-31T05:25:13.423Z,25.86
2022-08-31T05:28:51.106Z,25.83
2022-08-31T05:32:28.568Z,25.79
2022-08-31T05:36:07.986Z,25.71
2022-08-31T05:39:48.191Z,25.66
2022-08-31T05:43:25.973Z,25.62
2022-08-31T05:47:07.101Z,25.61
2022-08-31T05:50:44.965Z,25.63
2022-08-31T05:54:22.117Z,25.64
2022-08-31T05:58:00.286Z,25.64
2022-08-31T06:01:41.457Z,25.63
2022-08-31T06:05:20.376Z,25.64
2022-08-31T06:08:59.175Z,25.63
2022-08-31T06:12:37.935Z,25.62
2022-08-31T06:16:15.908Z,25.61
2022-08-31T06:19:53.266Z,25.59
2022-08-31T06:23:30.193Z,25.59
2022-08-31T06:27:07.101Z,25.58
2022-08-31T06:30:54.966Z,25.58
2022-08-31T06:34:32.721Z,25.59
2022-08-31T06:38:10.572Z,25.60
2022-08-31T06:41:48.311Z,25.62
2022-08-31T06:45:25.669Z,25.66
2022-08-31T06:49:04.884Z,25.67
2022-08-31T06:52:46.399Z,25.68
2022-08-31T06:56:26.149Z,25.68
2022-08-31T07:00:06.088Z,25.70
2022-08-31T07:03:46.169Z,25.73
2022-08-31T07:07:23.212Z,25.78
2022-08-31T07:11:01.185Z,25.85
2022-08-31T07:14:39.175Z,25.95
2022-08-31T07:18:16.192Z,26.07
2022-08-31T07:21:57.423Z,26.22
2022-08-31T07:25:37.310Z,26.37
2022-08-31T07:29:18.892Z,26.46
2022-08-31T07:32:56.814Z,26.53
2022-08-31T07:36:35.293Z,26.57
2022-08-31T07:40:12.361Z,26.62
2022-08-31T07:43:49.914Z,26.70
2022-08-31T07:47:29.091Z,26.87
2022-08-31T07:51:06.773Z,27.19
2022-08-31T07:54:44.512Z,27.48
2022-08-31T07:58:21.503Z,27.69
2022-08-31T08:02:01.027Z,27.79
2022-08-31T08:05:40.736Z,27.87
2022-08-31T08:09:25.716Z,27.94
2022-08-31T08:13:05.002Z,27.93
2022-08-31T08:16:43.294Z,27.89
2022-08-31T08:20:37.239Z,27.89
2022-08-31T08:24:16.271Z,27.80
2022-08-31T08:27:54.959Z,27.89
2022-08-31T08:31:33.789Z,28.02
2022-08-31T08:35:12.548Z,28.18
2022-08-31T08:38:52.533Z,28.33
2022-08-31T08:42:31.746Z,28.44
2022-08-31T08:46:31.672Z,28.59
2022-08-31T08:50:10.101Z,28.77
2022-08-31T08:53:54.084Z,28.89
2022-08-31T08:57:39.830Z,29.07
2022-08-31T09:01:25.166Z,29.19
2022-08-31T09:05:09.643Z,29.15
2022-08-31T09:08:50.768Z,29.04
2022-08-31T09:12:58.716Z,28.93
2022-08-31T09:17:06.819Z,28.94
2022-08-31T09:21:04.805Z,28.76
2022-08-31T09:24:42.655Z,28.80
2022-08-31T09:28:37.912Z,28.89
2022-08-31T09:32:22.326Z,29.04
2022-08-31T09:36:22.582Z,29.12
2022-08-31T09:40:23.719Z,29.23
2022-08-31T09:44:26.548Z,29.29
2022-08-31T09:48:08.303Z,29.42
2022-08-31T09:51:46.117Z,29.40
2022-08-31T09:55:27.768Z,29.30
2022-08-31T09:59:05.866Z,29.47
2022-08-31T10:02:45.700Z,29.45
2022-08-31T10:06:39.326Z,29.44
2022-08-31T10:10:31.696Z,29.65
2022-08-31T10:14:25.476Z,29.70
2022-08-31T10:18:15.495Z,29.36
2022-08-31T10:22:10.775Z,28.92
2022-08-31T10:25:58.040Z,28.83
2022-08-31T10:29:44.002Z,28.83
2022-08-31T10:33:53.434Z,28.78
2022-08-31T10:37:52.151Z,28.76
2022-08-31T10:41:35.548Z,28.82
2022-08-31T10:45:18.669Z,28.94
2022-08-31T10:48:58.358Z,29.01
2022-08-31T10:52:51.953Z,29.08
2022-08-31T10:56:43.606Z,29.11
2022-08-31T11:00:25.690Z,28.98
2022-08-31T11:04:09.743Z,29.00
2022-08-31T11:07:57.923Z,29.14
2022-08-31T11:11:48.772Z,29.33
2022-08-31T11:15:41.754Z,29.32
2022-08-31T11:19:32.428Z,29.30
2022-08-31T11:23:23.082Z,29.32
2022-08-31T11:27:09.186Z,29.45
2022-08-31T11:30:51.090Z,29.54
2022-08-31T11:34:40.123Z,29.71
2022-08-31T11:38:48.278Z,29.70
2022-08-31T11:42:29.247Z,29.75
2022-08-31T11:46:22.474Z,29.86
2022-08-31T11:50:51.791Z,29.93
2022-08-31T11:54:31.794Z,29.92
2022-08-31T11:58:18.487Z,29.92
2022-08-31T12:02:20.019Z,30.00
2022-08-31T12:05:57.703Z,30.17
2022-08-31T12:09:57.678Z,30.34
2022-08-31T12:13:55.496Z,30.50
2022-08-31T12:17:50.875Z,30.57
2022-08-31T12:21:52.296Z,30.51
2022-08-31T12:25:54.666Z,30.38
2022-08-31T12:29:36.118Z,30.37
2022-08-31T12:33:18.044Z,30.54
2022-08-31T12:36:57.023Z,30.52
2022-08-31T12:40:51.750Z,30.55
2022-08-31T12:44:34.409Z,30.72
2022-08-31T12:48:20.854Z,30.85
2022-08-31T12:52:23.256Z,30.86
2022-08-31T12:56:24.911Z,30.82
2022-08-31T13:00:21.864Z,30.69
2022-08-31T13:04:03.422Z,30.76
2022-08-31T13:07:41.111Z,30.93
2022-08-31T13:11:24.224Z,30.89
2022-08-31T13:15:04.656Z,30.94
2022-08-31T13:18:41.943Z,30.97
2022-08-31T13:22:33.609Z,31.18
2022-08-31T13:26:24.640Z,31.24
2022-08-31T13:30:16.052Z,31.24
2022-08-31T13:33:54.630Z,31.44
2022-08-31T13:37:38.518Z,31.50
2022-08-31T13:41:25.781Z,31.55
2022-08-31T13:45:06.692Z,31.42
2022-08-31T13:48:51.661Z,31.35
2022-08-31T13:52:31.902Z,31.35
2022-08-31T13:56:31.775Z,31.42
2022-08-31T14:00:32.161Z,31.34
2022-08-31T14:04:48.314Z,31.11
2022-08-31T14:08:28.084Z,31.63
2022-08-31T14:12:07.000Z,32.81
2022-08-31T14:16:00.855Z,34.22
2022-08-31T14:19:38.700Z,35.25
2022-08-31T14:23:25.890Z,36.13
2022-08-31T14:27:03.486Z,36.78
2022-08-31T14:30:41.777Z,36.71
2022-08-31T14:34:22.487Z,36.64
2022-08-31T14:38:00.492Z,35.90
2022-08-31T14:41:38.871Z,34.66
2022-08-31T14:45:18.597Z,34.30
2022-08-31T14:48:57.166Z,34.98
2022-08-31T14:52:37.706Z,34.96
2022-08-31T14:56:15.943Z,33.61
2022-08-31T14:59:58.153Z,33.14
2022-08-31T15:03:35.717Z,33.01
2022-08-31T15:07:14.998Z,32.58
2022-08-31T15:10:53.704Z,32.41
2022-08-31T15:14:31.184Z,32.30
2022-08-31T15:18:08.898Z,31.98
2022-08-31T15:21:52.275Z,31.93
2022-08-31T15:25:30.953Z,31.94
2022-08-31T15:29:08.009Z,31.61
2022-08-31T15:32:48.982Z,31.35
2022-08-31T15:36:28.320Z,31.03
2022-08-31T15:40:07.521Z,30.66
2022-08-31T15:43:45.629Z,30.35
2022-08-31T15:47:26.818Z,30.30
2022-08-31T15:51:03.965Z,30.35
2022-08-31T15:54:42.620Z,30.21
2022-08-31T15:58:24.638Z,30.07
2022-08-31T16:02:05.948Z,30.05
2022-08-31T16:05:44.021Z,30.12
2022-08-31T16:09:23.227Z,30.20
2022-08-31T16:13:00.695Z,30.18
2022-08-31T16:16:41.639Z,30.19
2022-08-31T16:20:20.057Z,30.15
2022-08-31T16:24:00.044Z,30.14
2022-08-31T16:27:37.464Z,30.10
2022-08-31T16:31:14.436Z,30.08
2022-08-31T16:34:52.220Z,30.04
2022-08-31T16:38:29.534Z,29.84
2022-08-31T16:42:09.086Z,29.63
2022-08-31T16:45:46.882Z,29.55
2022-08-31T16:49:24.069Z,29.50
2022-08-31T16:53:01.752Z,29.40
2022-08-31T16:56:42.588Z,29.39
2022-08-31T17:00:31.468Z,29.23
2022-08-31T17:04:34.798Z,29.17
2022-08-31T17:08:15.888Z,29.06
2022-08-31T17:12:00.449Z,29.09
2022-08-31T17:15:37.811Z,29.04
2022-08-31T17:19:18.275Z,29.06
2022-08-31T17:22:55.873Z,29.06
2022-08-31T17:26:34.332Z,28.99
2022-08-31T17:30:12.114Z,28.98
2022-08-31T17:33:50.550Z,28.92
2022-08-31T17:37:30.815Z,28.96
2022-08-31T17:41:09.962Z,28.99
2022-08-31T17:44:49.331Z,29.03
2022-08-31T17:48:27.377Z,29.04
2022-08-31T17:52:07.020Z,28.96
2022-08-31T17:55:53.478Z,28.98
2022-08-31T17:59:34.146Z,28.97
2022-08-31T18:03:11.665Z,28.89
2022-08-31T18:06:50.413Z,28.81
2022-08-31T18:10:28.354Z,28.68
2022-08-31T18:14:06.714Z,28.59
2022-08-31T18:17:44.804Z,28.54
2022-08-31T18:21:24.357Z,28.42
2022-08-31T18:25:02.392Z,28.42
2022-08-31T18:28:40.146Z,28.45
2022-08-31T18:32:17.607Z,28.41
2022-08-31T18:35:54.652Z,28.38
2022-08-31T18:39:51.952Z,28.40
2022-08-31T18:43:29.503Z,28.42
2022-08-31T18:47:10.499Z,28.42
2022-08-31T18:50:49.905Z,28.42
2022-08-31T18:54:27.119Z,28.38
2022-08-31T18:58:05.808Z,28.33
2022-08-31T19:01:45.375Z,28.35
2022-08-31T19:05:23.380Z,28.32
2022-08-31T19:09:01.038Z,28.37
2022-08-31T19:12:39.417Z,28.38
2022-08-31T19:16:24.175Z,28.37
2022-08-31T19:20:03.724Z,28.36
2022-08-31T19:23:41.922Z,28.34
2022-08-31T19:27:19.686Z,28.32
2022-08-31T19:30:56.940Z,28.27
2022-08-31T19:34:38.954Z,28.27
2022-08-31T19:38:16.255Z,28.24
2022-08-31T19:42:01.496Z,28.23
2022-08-31T19:45:43.733Z,28.24
2022-08-31T19:49:24.146Z,28.25
2022-08-31T19:53:02.972Z,28.26
2022-08-31T19:56:41.843Z,28.28
2022-08-31T20:00:20.092Z,28.33
2022-08-31T20:03:57.903Z,28.36
2022-08-31T20:07:35.823Z,28.40
2022-08-31T20:11:21.272Z,28.43
2022-08-31T20:14:59.180Z,28.46
2022-08-31T20:18:37.051Z,28.46
2022-08-31T20:22:14.914Z,28.47
2022-08-31T20:25:53.159Z,28.46
2022-08-31T20:29:33.359Z,28.46
2022-08-31T20:33:12.224Z,28.46
2022-08-31T20:36:52.116Z,28.45
2022-08-31T20:40:30.070Z,28.47
2022-08-31T20:44:12.160Z,28.43
2022-08-31T20:47:49.657Z,28.39
2022-08-31T20:51:27.778Z,28.41
2022-08-31T20:55:07.552Z,28.42
2022-08-31T20:58:46.443Z,28.41
2022-08-31T21:02:24.717Z,28.40
2022-08-31T21:06:08.808Z,28.38
2022-08-31T21:09:47.350Z,28.36
2022-08-31T21:13:25.279Z,28.34
2022-08-31T21:17:05.810Z,28.32
2022-08-31T21:20:44.816Z,28.28
2022-08-31T21:24:22.911Z,28.28
2022-08-31T21:28:00.981Z,28.26
2022-08-31T21:31:43.704Z,28.26
2022-08-31T21:35:27.159Z,28.25
2022-08-31T21:39:09.012Z,28.26
2022-08-31T21:42:49.445Z,28.26
2022-08-31T21:46:26.571Z,28.28
2022-08-31T21:50:05.377Z,28.28
2022-08-31T21:53:45.902Z,28.26
2022-08-31T21:57:23.567Z,28.24
2022-08-31T22:01:02.771Z,28.23
2022-08-31T22:04:43.720Z,28.23
2022-08-31T22:08:22.138Z,28.22
2022-08-31T22:12:00.000Z,28.22
2022-08-31T22:15:38.179Z,28.20
2022-08-31T22:19:19.233Z,28.19
2022-08-31T22:22:56.572Z,28.19
2022-08-31T22:26:38.336Z,28.17
2022-08-31T22:30:17.386Z,28.15
2022-08-31T22:33:54.727Z,28.14
2022-08-31T22:37:32.898Z,28.10
2022-08-31T22:41:12.195Z,28.07
2022-08-31T22:44:50.577Z,28.04
2022-08-31T22:48:28.245Z,28.02
2022-08-31T22:52:05.591Z,27.98
2022-08-31T22:55:43.141Z,27.95
2022-08-31T22:59:24.515Z,27.92
2022-08-31T23:03:01.754Z,27.89
2022-08-31T23:06:40.046Z,27.86
2022-08-31T23:10:19.847Z,27.81
2022-08-31T23:13:58.635Z,27.77
2022-08-31T23:17:36.701Z,27.73
2022-08-31T23:21:14.674Z,27.68
2022-08-31T23:24:52.639Z,27.64
2022-08-31T23:28:29.894Z,27.62
2022-08-31T23:32:09.408Z,27.56
2022-08-31T23:35:47.264Z,27.55
2022-08-31T23:39:25.490Z,27.50
2022-08-31T23:43:03.351Z,27.45
2022-08-31T23:46:43.051Z,27.46
2022-08-31T23:50:20.778Z,27.43
2022-08-31T23:53:57.964Z,27.37
2022-08-31T23:57:37.063Z,27.35
